Time;durP1;ratioP1;P1;durP2;ratioP2;P2;SDS_P1;SDS_P2;PMS_P1;PMS_P2;Temp;Humidity;BMP_temperature;BMP_pressure;BME280_temperature;BME280_humidity;BME280_pressure;Samples;Min_cycle;Max_cycle;Signal;HPM_P1;HPM_P2
2022/01/09 00:01:55;;;;;;;1.80;0.70;;;6.00;99.90;;;;;;5064739;28;20491;-48
2022/01/09 00:04:21;;;;;;;1.37;0.60;;;6.10;99.90;;;;;;5053404;28;20995;-48
2022/01/09 00:06:48;;;;;;;1.53;0.73;;;6.10;99.90;;;;;;5039887;28;20504;-46
2022/01/09 00:09:16;;;;;;;1.37;0.60;;;6.00;99.90;;;;;;5049665;28;20542;-47
2022/01/09 00:11:44;;;;;;;1.50;0.70;;;5.90;99.90;;;;;;5051312;28;20468;-48
2022/01/09 00:14:11;;;;;;;1.30;0.50;;;6.10;99.90;;;;;;5052814;28;20920;-47
2022/01/09 00:16:38;;;;;;;1.50;0.80;;;6.20;99.90;;;;;;5061011;27;21310;-47
2022/01/09 00:19:04;;;;;;;1.30;0.50;;;6.10;99.90;;;;;;5051269;28;20481;-47
2022/01/09 00:21:31;;;;;;;1.30;0.50;;;6.10;99.90;;;;;;5048568;28;20538;-47
2022/01/09 00:23:58;;;;;;;1.40;0.73;;;6.20;99.90;;;;;;5059948;28;20542;-47
2022/01/09 00:26:24;;;;;;;2.07;0.60;;;6.10;99.90;;;;;;5047641;28;20476;-47
2022/01/09 00:28:52;;;;;;;1.40;0.60;;;6.30;99.90;;;;;;5046816;28;20549;-48
2022/01/09 00:31:19;;;;;;;1.40;0.57;;;6.30;99.90;;;;;;5047515;28;20478;-48
2022/01/09 00:33:46;;;;;;;1.50;0.80;;;6.40;99.90;;;;;;5048111;28;20492;-47
2022/01/09 00:36:13;;;;;;;1.40;0.60;;;6.30;99.90;;;;;;5046067;28;20551;-48
2022/01/09 00:38:40;;;;;;;1.60;0.80;;;6.40;99.90;;;;;;5040605;28;20970;-48
2022/01/09 00:41:07;;;;;;;1.60;0.90;;;6.40;99.90;;;;;;5051769;28;20485;-47
2022/01/09 00:43:33;;;;;;;1.30;0.57;;;6.40;99.90;;;;;;5043943;28;20543;-49
2022/01/09 00:46:01;;;;;;;2.03;0.90;;;6.40;99.90;;;;;;5063363;28;20587;-49
2022/01/09 00:48:28;;;;;;;1.40;0.70;;;6.20;99.90;;;;;;5042906;28;20470;-48
2022/01/09 00:50:55;;;;;;;1.43;0.73;;;6.40;99.90;;;;;;5077909;27;20483;-48
2022/01/09 00:53:21;;;;;;;1.30;0.60;;;6.40;99.90;;;;;;5074523;27;20481;-48
2022/01/09 00:55:48;;;;;;;1.53;0.70;;;6.40;99.90;;;;;;5056752;28;20480;-49
2022/01/09 00:58:15;;;;;;;2.13;0.70;;;6.50;99.90;;;;;;5060448;28;20524;-49
2022/01/09 01:00:41;;;;;;;2.13;0.90;;;6.40;99.90;;;;;;5077077;28;21318;-47
2022/01/09 01:03:09;;;;;;;2.43;0.73;;;6.40;99.90;;;;;;5068290;28;21119;-48
2022/01/09 01:05:36;;;;;;;1.43;0.63;;;6.40;99.90;;;;;;5068914;28;21062;-47
2022/01/09 01:08:04;;;;;;;1.50;0.60;;;6.30;99.90;;;;;;5068445;28;20476;-50
2022/01/09 01:10:31;;;;;;;1.70;1.07;;;6.30;99.90;;;;;;5069607;28;20997;-48
2022/01/09 01:12:57;;;;;;;1.60;0.73;;;6.10;99.90;;;;;;5066852;28;20481;-48
2022/01/09 01:15:24;;;;;;;1.50;0.90;;;6.20;99.90;;;;;;5051788;27;21266;-47
2022/01/09 01:17:51;;;;;;;1.60;0.70;;;6.10;99.90;;;;;;5065569;27;20480;-50
2022/01/09 01:20:21;;;;;;;3.10;0.90;;;6.10;99.90;;;;;;5051005;28;21007;-49
2022/01/09 01:22:49;;;;;;;1.30;0.60;;;6.10;99.90;;;;;;5026336;28;20960;-48
2022/01/09 01:25:16;;;;;;;1.83;1.23;;;6.10;99.90;;;;;;5037083;28;20506;-48
2022/01/09 01:27:43;;;;;;;3.03;0.90;;;6.10;99.90;;;;;;5056636;28;20845;-48
2022/01/09 01:30:11;;;;;;;1.50;0.80;;;6.10;99.90;;;;;;5047652;28;20748;-48
2022/01/09 01:32:38;;;;;;;1.50;1.17;;;6.00;99.90;;;;;;5055458;28;20877;-47
2022/01/09 01:35:05;;;;;;;1.50;0.93;;;6.00;99.90;;;;;;5039520;28;20574;-48
2022/01/09 01:37:34;;;;;;;1.47;0.80;;;6.10;99.90;;;;;;5044334;28;20539;-48
2022/01/09 01:40:00;;;;;;;6.10;1.77;;;6.10;99.90;;;;;;5033479;28;20504;-48
2022/01/09 01:42:27;;;;;;;1.90;1.30;;;6.20;99.90;;;;;;5048911;28;20489;-48
2022/01/09 01:44:54;;;;;;;1.43;0.77;;;6.20;99.90;;;;;;5046268;28;20486;-48
2022/01/09 01:47:22;;;;;;;1.47;0.77;;;6.20;99.90;;;;;;5042483;28;20955;-50
2022/01/09 01:49:50;;;;;;;1.53;1.00;;;6.30;99.90;;;;;;5067305;28;20496;-49
2022/01/09 01:52:22;;;;;;;2.50;1.30;;;6.30;99.90;;;;;;5044415;28;20478;-48
2022/01/09 01:54:50;;;;;;;1.50;1.03;;;6.30;99.90;;;;;;5042368;28;20493;-48
2022/01/09 01:57:17;;;;;;;1.40;0.70;;;6.30;99.90;;;;;;5044419;28;20571;-49
2022/01/09 01:59:44;;;;;;;1.60;0.70;;;6.40;99.90;;;;;;5046996;28;21298;-48
2022/01/09 02:02:11;;;;;;;5.67;1.60;;;6.50;99.90;;;;;;5042147;28;20476;-48
2022/01/09 02:04:38;;;;;;;1.47;0.80;;;6.50;99.90;;;;;;5046307;28;20543;-49
2022/01/09 02:07:05;;;;;;;1.40;0.80;;;6.60;99.90;;;;;;5042296;28;20835;-48
2022/01/09 02:09:33;;;;;;;1.60;1.00;;;6.60;99.90;;;;;;5023875;28;20507;-49
2022/01/09 02:12:01;;;;;;;1.50;0.67;;;6.70;99.90;;;;;;5039886;28;20526;-48
2022/01/09 02:14:28;;;;;;;1.87;0.70;;;6.70;99.90;;;;;;5043409;28;21374;-48
2022/01/09 02:16:55;;;;;;;1.50;0.90;;;6.60;99.90;;;;;;5043056;28;20477;-49
2022/01/09 02:19:22;;;;;;;1.50;0.50;;;6.60;99.90;;;;;;5045944;28;20589;-49
2022/01/09 02:21:50;;;;;;;1.40;0.80;;;6.60;99.90;;;;;;5046500;28;21353;-50
2022/01/09 02:24:18;;;;;;;1.40;0.80;;;6.60;99.90;;;;;;5046370;28;21004;-50
2022/01/09 02:26:44;;;;;;;3.33;0.70;;;6.60;99.90;;;;;;5048361;28;20486;-51
2022/01/09 02:29:11;;;;;;;1.30;0.73;;;6.50;99.90;;;;;;5046334;28;20490;-49
2022/01/09 02:31:38;;;;;;;1.30;0.50;;;6.60;99.90;;;;;;5043919;28;20473;-49
2022/01/09 02:34:04;;;;;;;1.50;1.13;;;6.60;99.90;;;;;;5049854;28;20476;-49
2022/01/09 02:36:32;;;;;;;2.13;0.70;;;6.60;99.90;;;;;;5045529;28;20489;-49
2022/01/09 02:39:00;;;;;;;1.30;0.60;;;6.60;99.90;;;;;;5044923;28;20479;-52
2022/01/09 02:41:27;;;;;;;1.40;0.60;;;6.70;99.90;;;;;;5033725;28;20483;-49
2022/01/09 02:43:53;;;;;;;1.30;0.57;;;6.70;99.90;;;;;;5042304;28;20565;-49
2022/01/09 02:46:36;;;;;;;1.30;0.60;;;6.70;99.90;;;;;;5047652;28;20549;-49
2022/01/09 02:49:06;;;;;;;1.30;0.50;;;6.60;99.90;;;;;;5048218;28;20486;-48
2022/01/09 02:51:32;;;;;;;1.30;0.50;;;6.60;99.90;;;;;;5042965;28;20473;-48
2022/01/09 02:55:04;;;;;;;1.30;0.50;;;6.60;99.90;;;;;;5032672;28;20488;-48
2022/01/09 02:56:47;;;;;;;1.30;0.50;;;6.60;99.90;;;;;;5039977;28;20602;-49
2022/01/09 02:59:14;;;;;;;1.30;0.50;;;6.60;99.90;;;;;;5063230;28;20480;-49
2022/01/09 03:01:40;;;;;;;1.67;0.60;;;6.50;99.90;;;;;;5050827;28;20510;-48
2022/01/09 03:04:07;;;;;;;1.30;0.50;;;6.50;99.90;;;;;;5053403;28;20476;-49
2022/01/09 03:06:34;;;;;;;1.30;0.50;;;6.50;99.90;;;;;;5051888;28;20859;-49
2022/01/09 03:09:05;;;;;;;1.30;0.50;;;6.40;99.90;;;;;;5081626;28;20538;-48
2022/01/09 03:11:32;;;;;;;1.40;0.83;;;6.40;99.90;;;;;;5070678;27;20485;-49
2022/01/09 03:13:58;;;;;;;1.30;0.50;;;6.30;99.90;;;;;;5088033;27;21089;-48
2022/01/09 03:16:25;;;;;;;1.30;0.60;;;6.30;99.90;;;;;;5075348;28;20475;-50
2022/01/09 03:18:52;;;;;;;1.30;0.50;;;6.20;99.90;;;;;;5089502;27;20887;-48
2022/01/09 03:21:19;;;;;;;1.90;0.80;;;6.10;99.90;;;;;;5077739;28;21573;-49
2022/01/09 03:23:45;;;;;;;2.53;0.70;;;6.20;99.90;;;;;;5072600;28;25683;-48
2022/01/09 03:26:13;;;;;;;1.40;0.50;;;6.10;99.90;;;;;;5093454;27;20485;-47
2022/01/09 03:28:40;;;;;;;1.33;0.50;;;6.00;99.90;;;;;;5071197;28;20551;-48
2022/01/09 03:31:07;;;;;;;1.40;0.50;;;6.00;99.90;;;;;;5089226;27;21566;-48
2022/01/09 03:33:33;;;;;;;1.30;0.60;;;6.00;99.90;;;;;;5084153;27;20472;-50
2022/01/09 03:36:00;;;;;;;1.23;0.50;;;5.90;99.90;;;;;;5104191;27;20534;-50
2022/01/09 03:38:27;;;;;;;1.30;0.50;;;5.90;99.90;;;;;;5085609;27;20496;-49
2022/01/09 03:40:53;;;;;;;1.30;0.50;;;5.90;99.90;;;;;;5083083;28;20489;-50
2022/01/09 03:43:21;;;;;;;1.47;0.50;;;5.80;99.90;;;;;;5084413;27;21002;-50
2022/01/09 03:45:48;;;;;;;1.30;0.50;;;5.80;99.90;;;;;;5081036;27;20485;-49
2022/01/09 03:48:15;;;;;;;1.30;0.50;;;5.70;99.90;;;;;;5093577;27;20479;-48
2022/01/09 03:50:49;;;;;;;1.40;0.70;;;5.70;99.90;;;;;;5080918;28;20524;-49
2022/01/09 03:53:16;;;;;;;3.40;1.47;;;5.70;99.90;;;;;;5078347;27;21394;-48
2022/01/09 03:55:43;;;;;;;1.30;0.50;;;5.70;99.90;;;;;;5091862;28;20877;-49
2022/01/09 03:58:09;;;;;;;1.30;0.50;;;5.60;99.90;;;;;;5081639;28;20495;-48
2022/01/09 04:00:38;;;;;;;1.30;0.60;;;5.60;99.90;;;;;;5082597;28;20480;-50
2022/01/09 04:03:04;;;;;;;1.30;0.50;;;5.60;99.90;;;;;;5062384;28;20817;-49
2022/01/09 04:05:31;;;;;;;2.97;0.70;;;5.50;99.90;;;;;;5063734;27;21079;-49
2022/01/09 04:07:58;;;;;;;1.30;0.53;;;5.50;99.90;;;;;;5071485;28;20493;-49
2022/01/09 04:10:28;;;;;;;2.47;0.80;;;5.60;99.90;;;;;;5051274;28;20571;-48
2022/01/09 04:12:59;;;;;;;1.87;0.70;;;5.50;99.90;;;;;;5076073;28;20502;-49
2022/01/09 04:15:27;;;;;;;1.50;0.83;;;5.60;99.90;;;;;;5061984;28;20508;-50
2022/01/09 04:17:56;;;;;;;1.40;0.57;;;5.60;99.90;;;;;;5050593;28;20476;-49
2022/01/09 04:20:26;;;;;;;1.30;0.60;;;5.60;99.90;;;;;;5051873;28;20492;-48
2022/01/09 04:22:53;;;;;;;1.30;0.50;;;5.70;99.90;;;;;;5074864;27;21152;-48
2022/01/09 04:25:20;;;;;;;1.40;0.60;;;5.70;99.90;;;;;;5062417;28;20493;-48
2022/01/09 04:27:50;;;;;;;1.40;0.50;;;5.70;99.90;;;;;;5054028;28;20621;-49
2022/01/09 04:30:17;;;;;;;1.67;0.87;;;5.70;99.90;;;;;;5063969;28;20483;-50
2022/01/09 04:32:44;;;;;;;5.03;1.17;;;5.60;99.90;;;;;;5058187;28;20581;-49
2022/01/09 04:35:13;;;;;;;4.13;0.77;;;5.70;99.90;;;;;;5065930;28;20532;-48
2022/01/09 04:37:40;;;;;;;2.17;1.00;;;5.70;99.90;;;;;;5066111;28;20485;-48
2022/01/09 04:40:11;;;;;;;1.50;0.70;;;5.70;99.90;;;;;;5064091;28;20509;-48
2022/01/09 04:42:42;;;;;;;1.40;0.70;;;5.70;99.90;;;;;;5057052;28;20505;-49
2022/01/09 04:45:12;;;;;;;1.50;0.97;;;5.70;99.90;;;;;;5062680;28;20488;-48
2022/01/09 04:47:43;;;;;;;1.40;0.80;;;5.70;99.90;;;;;;5056428;28;20485;-49
2022/01/09 04:50:16;;;;;;;5.07;1.83;;;5.70;99.90;;;;;;5068404;28;20505;-48
2022/01/09 04:52:44;;;;;;;2.80;1.10;;;5.70;99.90;;;;;;5056050;28;20484;-49
2022/01/09 04:55:11;;;;;;;3.00;0.90;;;5.70;99.90;;;;;;5056752;28;20491;-48
2022/01/09 04:57:38;;;;;;;1.60;0.70;;;5.70;99.90;;;;;;5064799;27;20484;-48
2022/01/09 05:00:07;;;;;;;3.33;0.90;;;5.70;99.90;;;;;;5069218;28;20484;-49
2022/01/09 05:02:34;;;;;;;1.70;0.83;;;5.70;99.90;;;;;;5057260;28;20999;-49
2022/01/09 05:05:00;;;;;;;2.07;1.30;;;5.80;99.90;;;;;;5056875;28;20480;-49
2022/01/09 05:07:28;;;;;;;3.60;1.30;;;5.80;99.90;;;;;;5060974;28;20477;-47
2022/01/09 05:09:55;;;;;;;3.10;1.10;;;5.70;99.90;;;;;;5063867;28;21234;-49
2022/01/09 05:12:22;;;;;;;2.70;1.00;;;5.70;99.90;;;;;;5061266;28;20481;-49
2022/01/09 05:14:49;;;;;;;3.43;1.03;;;5.80;99.90;;;;;;5057064;28;20497;-49
2022/01/09 05:17:15;;;;;;;2.77;1.10;;;5.80;99.90;;;;;;5067719;28;20550;-49
2022/01/09 05:19:43;;;;;;;4.30;1.67;;;5.80;99.90;;;;;;5060598;28;20484;-48
2022/01/09 05:22:10;;;;;;;4.47;1.50;;;5.80;99.90;;;;;;5056029;28;20486;-49
2022/01/09 05:24:38;;;;;;;5.60;1.83;;;5.80;99.90;;;;;;5060415;28;20487;-49
2022/01/09 05:27:05;;;;;;;2.60;1.20;;;5.80;99.90;;;;;;5069101;28;20577;-49
2022/01/09 05:29:32;;;;;;;2.50;1.20;;;5.80;99.90;;;;;;5042737;28;20909;-49
2022/01/09 05:31:58;;;;;;;3.60;1.57;;;5.80;99.90;;;;;;5074349;27;21248;-49
2022/01/09 05:34:25;;;;;;;3.60;0.93;;;5.80;99.90;;;;;;5059593;28;20489;-48
2022/01/09 05:36:52;;;;;;;4.63;1.70;;;5.80;99.90;;;;;;5049746;28;20534;-49
2022/01/09 05:39:18;;;;;;;17.83;1.43;;;5.80;99.90;;;;;;5074038;28;20984;-49
2022/01/09 05:41:47;;;;;;;4.60;1.50;;;5.80;99.90;;;;;;5049999;28;20545;-48
2022/01/09 05:44:14;;;;;;;2.00;1.73;;;5.80;99.90;;;;;;5047276;28;21044;-51
2022/01/09 05:46:41;;;;;;;6.80;2.10;;;5.80;99.90;;;;;;5057707;28;20595;-49
2022/01/09 05:49:08;;;;;;;4.90;1.97;;;5.80;99.90;;;;;;5095547;27;20539;-48
2022/01/09 05:51:34;;;;;;;4.23;1.13;;;5.80;99.90;;;;;;5073079;27;20511;-49
2022/01/09 05:54:01;;;;;;;6.83;1.30;;;5.80;99.90;;;;;;5092867;27;20510;-48
2022/01/09 05:56:28;;;;;;;4.83;1.30;;;5.70;99.90;;;;;;5071408;27;20495;-48
2022/01/09 05:58:56;;;;;;;3.90;1.50;;;5.80;99.90;;;;;;5090359;27;20541;-48
2022/01/09 06:01:23;;;;;;;4.47;1.50;;;5.70;99.90;;;;;;5079026;27;20475;-49
2022/01/09 06:03:49;;;;;;;11.70;2.27;;;5.70;99.90;;;;;;5071509;28;20567;-49
2022/01/09 06:06:16;;;;;;;5.70;1.37;;;5.70;99.90;;;;;;5089768;28;21124;-48
2022/01/09 06:08:43;;;;;;;4.63;2.13;;;5.70;99.90;;;;;;5079398;28;20517;-49
2022/01/09 06:11:09;;;;;;;6.30;1.80;;;5.60;99.90;;;;;;5075876;28;20980;-48
2022/01/09 06:13:36;;;;;;;5.80;0.97;;;5.50;99.90;;;;;;5082553;27;20504;-49
2022/01/09 06:16:05;;;;;;;4.17;1.00;;;5.60;99.90;;;;;;5084966;27;20484;-48
2022/01/09 06:18:31;;;;;;;2.27;1.57;;;5.50;99.90;;;;;;5068915;28;20491;-49
2022/01/09 06:20:58;;;;;;;8.73;1.63;;;5.50;99.90;;;;;;5063949;28;21307;-48
2022/01/09 06:23:25;;;;;;;9.00;2.07;;;5.50;99.90;;;;;;5060902;28;20508;-48
2022/01/09 06:25:52;;;;;;;6.10;1.60;;;5.50;99.90;;;;;;5059351;28;20480;-50
2022/01/09 06:28:20;;;;;;;3.00;1.30;;;5.50;99.90;;;;;;5056774;28;20534;-49
2022/01/09 06:30:47;;;;;;;10.17;2.00;;;5.50;99.90;;;;;;5050893;28;20896;-49
2022/01/09 06:33:15;;;;;;;3.93;1.30;;;5.50;99.90;;;;;;5063709;28;20481;-48
2022/01/09 06:35:42;;;;;;;2.70;1.27;;;5.50;99.90;;;;;;5057274;28;20533;-49
2022/01/09 06:38:09;;;;;;;3.07;1.47;;;5.50;99.90;;;;;;5058346;28;20546;-48
2022/01/09 06:40:36;;;;;;;8.43;2.03;;;5.40;99.90;;;;;;5056684;28;20835;-49
2022/01/09 06:43:04;;;;;;;13.00;2.87;;;5.40;99.90;;;;;;5058322;28;20992;-50
2022/01/09 06:45:31;;;;;;;9.63;1.80;;;5.50;99.90;;;;;;5063559;28;20826;-50
2022/01/09 06:47:58;;;;;;;15.60;3.10;;;5.50;99.90;;;;;;5057610;28;21008;-48
2022/01/09 06:50:27;;;;;;;3.00;1.80;;;5.50;99.90;;;;;;5052370;28;20571;-48
2022/01/09 06:52:54;;;;;;;2.30;1.13;;;5.40;99.90;;;;;;5054572;28;20488;-49
2022/01/09 06:55:21;;;;;;;6.10;2.50;;;5.40;99.90;;;;;;5058505;28;20488;-49
2022/01/09 06:57:48;;;;;;;9.00;2.90;;;5.40;99.90;;;;;;5053764;28;20481;-49
2022/01/09 07:00:17;;;;;;;10.77;2.27;;;5.50;99.90;;;;;;5048201;28;21057;-49
2022/01/09 07:02:44;;;;;;;11.77;2.50;;;5.60;99.90;;;;;;5045638;28;20577;-49
2022/01/09 07:05:11;;;;;;;15.17;1.90;;;5.60;99.90;;;;;;5070436;28;20480;-49
2022/01/09 07:07:39;;;;;;;5.20;1.40;;;5.60;99.90;;;;;;5044512;28;20510;-49
2022/01/09 07:10:07;;;;;;;15.97;3.13;;;5.60;99.90;;;;;;5049330;28;20493;-49
2022/01/09 07:12:34;;;;;;;11.87;2.33;;;5.60;99.90;;;;;;5065760;28;21031;-49
2022/01/09 07:15:01;;;;;;;4.93;1.73;;;5.50;99.90;;;;;;5046557;28;20541;-55
2022/01/09 07:17:27;;;;;;;8.70;2.10;;;5.50;99.90;;;;;;5049543;28;20571;-49
2022/01/09 07:19:54;;;;;;;7.10;2.50;;;5.50;99.90;;;;;;5071359;28;20916;-48
2022/01/09 07:22:21;;;;;;;6.63;2.20;;;5.50;99.70;;;;;;5058596;28;20496;-48
2022/01/09 07:24:49;;;;;;;3.20;1.83;;;5.50;99.90;;;;;;5059260;28;20527;-48
2022/01/09 07:27:16;;;;;;;7.50;2.17;;;5.50;99.50;;;;;;5057126;28;20563;-49
2022/01/09 07:29:42;;;;;;;13.73;2.30;;;5.60;99.80;;;;;;5057440;28;20489;-49
2022/01/09 07:32:09;;;;;;;3.83;2.23;;;5.60;99.70;;;;;;5056913;28;20479;-49
2022/01/09 07:34:36;;;;;;;3.47;1.00;;;5.60;99.70;;;;;;5057640;28;20494;-49
2022/01/09 07:37:03;;;;;;;8.23;2.87;;;5.50;99.60;;;;;;5051185;28;20882;-49
2022/01/09 07:39:30;;;;;;;3.20;1.97;;;5.60;99.60;;;;;;5057657;28;20491;-49
2022/01/09 07:41:59;;;;;;;8.57;1.50;;;5.60;99.80;;;;;;5059021;28;20534;-49
2022/01/09 07:44:27;;;;;;;4.43;1.80;;;5.50;99.90;;;;;;5060978;28;20469;-49
2022/01/09 07:46:53;;;;;;;10.13;2.03;;;5.50;99.90;;;;;;5066342;28;20475;-49
2022/01/09 07:49:20;;;;;;;12.83;2.00;;;5.50;99.90;;;;;;5063027;28;20489;-48
2022/01/09 07:51:47;;;;;;;8.30;3.07;;;5.40;99.90;;;;;;5063674;28;20975;-49
2022/01/09 07:54:13;;;;;;;8.20;1.83;;;5.40;99.90;;;;;;5055661;28;20476;-48
2022/01/09 07:56:40;;;;;;;6.27;2.07;;;5.40;99.90;;;;;;5066423;28;20966;-49
2022/01/09 07:59:08;;;;;;;6.13;1.57;;;5.40;99.90;;;;;;5058459;28;20489;-48
2022/01/09 08:01:35;;;;;;;10.47;3.43;;;5.40;99.90;;;;;;5039262;28;20485;-49
2022/01/09 08:04:01;;;;;;;12.43;2.20;;;5.50;99.90;;;;;;5071058;28;20489;-49
2022/01/09 08:06:28;;;;;;;8.00;2.23;;;5.50;99.90;;;;;;5068413;28;20553;-49
2022/01/09 08:08:55;;;;;;;7.50;3.50;;;5.60;99.90;;;;;;5064822;28;20585;-48
2022/01/09 08:11:22;;;;;;;8.77;2.20;;;5.50;99.90;;;;;;5061488;28;20866;-47
2022/01/09 08:13:49;;;;;;;8.20;2.53;;;5.50;99.90;;;;;;5053027;28;20969;-50
2022/01/09 08:16:17;;;;;;;6.80;3.00;;;5.50;99.90;;;;;;5080284;27;20551;-47
2022/01/09 08:18:44;;;;;;;5.87;1.80;;;5.60;99.90;;;;;;5048352;28;20592;-48
2022/01/09 08:21:10;;;;;;;5.70;2.63;;;5.50;99.90;;;;;;5067955;28;21251;-49
2022/01/09 08:23:37;;;;;;;6.03;1.70;;;5.50;99.90;;;;;;5051266;28;20940;-49
2022/01/09 08:26:04;;;;;;;7.43;1.60;;;5.50;99.90;;;;;;5053793;28;20481;-48
2022/01/09 08:28:31;;;;;;;6.13;2.20;;;5.40;99.90;;;;;;5057470;28;20566;-49
2022/01/09 08:30:58;;;;;;;6.07;1.93;;;5.40;99.90;;;;;;5059678;28;20494;-49
2022/01/09 08:33:26;;;;;;;3.80;1.40;;;5.40;99.90;;;;;;5055183;28;20533;-48
2022/01/09 08:35:55;;;;;;;4.40;1.70;;;5.40;99.90;;;;;;5059611;28;20479;-51
2022/01/09 08:38:21;;;;;;;6.27;1.63;;;5.40;99.90;;;;;;5074944;28;20644;-48
2022/01/09 08:40:48;;;;;;;8.70;1.83;;;5.30;99.90;;;;;;5077273;28;20493;-49
2022/01/09 08:43:15;;;;;;;6.43;1.93;;;5.40;99.90;;;;;;5084422;27;20490;-50
2022/01/09 08:45:42;;;;;;;9.97;2.70;;;5.40;99.90;;;;;;5072487;27;20491;-49
2022/01/09 08:48:09;;;;;;;7.43;2.40;;;5.40;99.90;;;;;;5069383;28;20563;-48
2022/01/09 08:50:37;;;;;;;4.80;1.57;;;5.40;99.90;;;;;;5069434;28;21283;-49
2022/01/09 08:53:04;;;;;;;7.70;2.40;;;5.40;99.90;;;;;;5074051;28;20543;-52
2022/01/09 08:55:31;;;;;;;21.43;3.50;;;5.30;99.90;;;;;;5075517;28;20475;-48
2022/01/09 08:57:58;;;;;;;7.83;3.10;;;5.40;99.90;;;;;;5072458;28;20480;-49
2022/01/09 09:00:25;;;;;;;7.70;1.67;;;5.40;99.90;;;;;;5075472;28;20508;-49
2022/01/09 09:02:51;;;;;;;4.63;2.80;;;5.30;99.90;;;;;;5066939;27;20479;-52
2022/01/09 09:05:19;;;;;;;7.40;1.77;;;5.40;99.90;;;;;;5088296;27;20488;-49
2022/01/09 09:07:47;;;;;;;14.37;2.30;;;5.50;99.90;;;;;;5080890;28;20512;-48
2022/01/09 09:10:14;;;;;;;2.67;1.73;;;5.50;99.90;;;;;;5078695;28;20475;-49
2022/01/09 09:12:41;;;;;;;6.40;1.47;;;5.50;99.90;;;;;;5069626;28;20490;-48
2022/01/09 09:15:09;;;;;;;12.13;1.70;;;5.50;99.90;;;;;;5086808;28;20473;-48
2022/01/09 09:17:36;;;;;;;5.80;2.53;;;5.60;99.90;;;;;;5076634;28;20805;-49
2022/01/09 09:20:04;;;;;;;4.63;1.53;;;5.60;99.90;;;;;;5076570;28;20492;-49
2022/01/09 09:22:31;;;;;;;5.67;1.33;;;5.50;99.90;;;;;;5071156;28;20479;-49
2022/01/09 09:24:59;;;;;;;3.63;1.57;;;5.50;99.90;;;;;;5066825;28;20476;-50
2022/01/09 09:27:30;;;;;;;6.43;1.60;;;5.40;99.90;;;;;;5088355;28;20537;-48
2022/01/09 09:29:58;;;;;;;1.67;1.37;;;5.40;99.90;;;;;;5077116;28;20978;-48
2022/01/09 09:32:25;;;;;;;1.90;1.23;;;5.30;99.90;;;;;;5084526;28;20604;-49
2022/01/09 09:34:51;;;;;;;7.50;1.63;;;5.20;99.90;;;;;;5077330;28;20596;-51
2022/01/09 09:37:20;;;;;;;2.37;1.27;;;5.10;99.90;;;;;;5065566;27;20586;-50
2022/01/09 09:39:48;;;;;;;8.57;2.77;;;5.00;99.90;;;;;;5070799;28;20846;-51
2022/01/09 09:42:16;;;;;;;5.20;1.40;;;4.90;99.90;;;;;;5070849;27;20493;-50
2022/01/09 09:44:43;;;;;;;5.63;1.40;;;5.00;99.90;;;;;;5087398;27;20605;-49
2022/01/09 09:47:11;;;;;;;3.97;1.47;;;5.00;99.90;;;;;;5059472;28;20556;-50
2022/01/09 09:49:38;;;;;;;3.27;1.10;;;5.00;99.90;;;;;;5065677;28;20491;-49
2022/01/09 09:52:06;;;;;;;4.00;1.30;;;5.10;99.90;;;;;;5081389;28;20530;-50
2022/01/09 09:54:33;;;;;;;9.77;1.93;;;5.20;99.90;;;;;;5074761;28;20488;-50
2022/01/09 09:56:59;;;;;;;1.73;0.97;;;5.20;99.90;;;;;;5080356;28;20480;-50
2022/01/09 09:59:35;;;;;;;3.60;1.87;;;5.30;99.90;;;;;;5072002;28;20532;-50
2022/01/09 10:02:08;;;;;;;3.87;1.90;;;5.30;99.90;;;;;;5066913;28;20472;-49
2022/01/09 10:04:35;;;;;;;9.37;2.30;;;5.30;99.90;;;;;;5065392;27;20948;-50
2022/01/09 10:07:01;;;;;;;4.40;2.23;;;5.30;99.90;;;;;;5100935;27;20477;-49
2022/01/09 10:09:28;;;;;;;6.57;2.00;;;5.30;99.90;;;;;;5080043;28;20923;-49
2022/01/09 10:11:56;;;;;;;15.37;2.70;;;5.40;99.90;;;;;;5081892;28;20475;-50
2022/01/09 10:14:25;;;;;;;7.30;1.57;;;5.40;99.90;;;;;;5064107;28;20505;-48
2022/01/09 10:17:13;;;;;;;4.70;1.60;;;5.30;99.90;;;;;;5076638;28;20497;-52
2022/01/09 10:19:45;;;;;;;4.07;1.57;;;5.30;99.90;;;;;;5091285;27;20620;-49
2022/01/09 10:22:30;;;;;;;2.77;1.33;;;5.30;99.90;;;;;;5081717;28;20478;-49
2022/01/09 10:24:57;;;;;;;3.83;1.30;;;5.40;99.90;;;;;;5072940;28;20499;-48
2022/01/09 10:27:29;;;;;;;3.80;1.07;;;5.40;99.90;;;;;;5076084;28;20479;-49
2022/01/09 10:29:56;;;;;;;3.10;2.00;;;5.40;99.90;;;;;;5077045;28;20525;-49
2022/01/09 10:32:28;;;;;;;11.70;2.40;;;5.40;99.90;;;;;;5065432;28;20857;-49
2022/01/09 10:35:09;;;;;;;7.33;1.10;;;5.50;99.90;;;;;;5077162;27;20921;-51
2022/01/09 10:37:37;;;;;;;1.97;1.17;;;5.60;99.90;;;;;;5091880;27;20485;-50
2022/01/09 10:40:05;;;;;;;2.43;1.13;;;5.80;99.90;;;;;;5075814;28;20490;-49
2022/01/09 10:42:32;;;;;;;2.10;1.40;;;5.90;99.90;;;;;;5075995;28;20505;-50
2022/01/09 10:45:16;;;;;;;4.00;1.40;;;6.00;99.90;;;;;;5074996;28;20541;-49
2022/01/09 10:47:45;;;;;;;3.20;1.03;;;6.00;99.90;;;;;;5073468;28;20483;-48
2022/01/09 10:50:23;;;;;;;7.20;1.20;;;6.00;99.90;;;;;;5079769;28;20491;-48
2022/01/09 10:52:50;;;;;;;9.67;1.80;;;6.00;99.90;;;;;;5069939;28;20484;-50
2022/01/09 10:55:17;;;;;;;5.30;1.50;;;6.00;99.90;;;;;;5087466;28;20467;-50
2022/01/09 10:57:45;;;;;;;2.90;1.17;;;6.00;99.90;;;;;;5079090;28;20481;-48
2022/01/09 11:00:14;;;;;;;7.13;2.53;;;5.90;99.90;;;;;;5074056;28;21069;-49
2022/01/09 11:02:44;;;;;;;2.00;1.20;;;5.90;99.90;;;;;;5086930;28;20493;-48
2022/01/09 11:05:12;;;;;;;3.20;1.50;;;5.90;99.90;;;;;;5071752;28;20575;-48
2022/01/09 11:07:40;;;;;;;10.00;2.10;;;5.90;99.90;;;;;;5068188;28;20479;-50
2022/01/09 11:10:08;;;;;;;7.33;1.37;;;5.90;99.90;;;;;;5067163;28;20487;-49
2022/01/09 11:12:46;;;;;;;3.40;1.00;;;5.90;99.90;;;;;;5085562;28;20970;-48
2022/01/09 11:15:16;;;;;;;5.97;1.27;;;6.00;99.90;;;;;;5061707;28;20491;-49
2022/01/09 11:17:45;;;;;;;2.07;1.47;;;6.20;99.90;;;;;;5078621;28;20492;-49
2022/01/09 11:20:13;;;;;;;2.47;1.53;;;6.40;99.90;;;;;;5094995;28;20868;-48
2022/01/09 11:22:42;;;;;;;2.73;0.83;;;6.80;99.90;;;;;;5078959;28;20534;-48
2022/01/09 11:25:14;;;;;;;7.37;1.97;;;6.90;99.90;;;;;;5084215;28;20478;-47
2022/01/09 11:27:50;;;;;;;2.10;1.40;;;6.90;99.90;;;;;;5075549;28;21049;-48
2022/01/09 11:30:21;;;;;;;2.20;1.53;;;6.90;99.90;;;;;;5067984;28;20508;-48
2022/01/09 11:33:11;;;;;;;5.00;1.90;;;7.00;99.90;;;;;;5106373;27;20470;-48
2022/01/09 11:35:49;;;;;;;7.73;2.07;;;7.20;99.90;;;;;;5081689;28;21143;-47
2022/01/09 11:38:26;;;;;;;6.30;1.00;;;7.20;99.90;;;;;;5070314;28;20498;-47
2022/01/09 11:40:52;;;;;;;2.90;1.33;;;7.30;99.90;;;;;;5074699;28;20477;-48
2022/01/09 11:43:21;;;;;;;7.70;1.83;;;7.40;99.90;;;;;;5083288;28;20541;-48
2022/01/09 11:45:52;;;;;;;6.30;3.30;;;7.40;99.60;;;;;;5082993;28;21016;-47
2022/01/09 11:48:40;;;;;;;4.73;2.10;;;7.40;99.70;;;;;;5074385;28;20491;-49
2022/01/09 11:51:16;;;;;;;3.27;2.07;;;7.50;99.70;;;;;;5090366;28;20544;-49
2022/01/09 11:53:57;;;;;;;8.17;1.67;;;7.40;99.90;;;;;;5083457;28;20492;-48
2022/01/09 11:56:49;;;;;;;3.87;1.57;;;7.30;99.90;;;;;;5069308;28;20553;-47
2022/01/09 11:59:28;;;;;;;5.33;1.70;;;7.30;99.90;;;;;;5057269;28;20496;-48
2022/01/09 12:01:57;;;;;;;2.50;0.90;;;7.20;99.90;;;;;;5069076;27;20478;-48
2022/01/09 12:04:52;;;;;;;12.80;2.90;;;7.10;99.40;;;;;;5108201;27;20510;-49
2022/01/09 12:07:42;;;;;;;3.33;2.20;;;7.10;99.90;;;;;;5070017;28;20468;-49
2022/01/09 12:10:27;;;;;;;1.40;0.80;;;7.10;99.90;;;;;;5079634;28;21742;-48
2022/01/09 12:12:55;;;;;;;1.80;0.83;;;6.90;99.70;;;;;;5080879;27;20472;-48
2022/01/09 12:15:43;;;;;;;3.60;1.00;;;6.80;99.90;;;;;;5091700;27;20483;-48
2022/01/09 12:18:40;;;;;;;2.07;1.07;;;6.70;99.90;;;;;;5078823;28;20468;-48
2022/01/09 12:21:08;;;;;;;4.07;3.00;;;6.80;99.90;;;;;;5082406;28;20620;-47
2022/01/09 12:23:36;;;;;;;2.17;1.40;;;7.00;99.90;;;;;;5076839;28;21008;-48
2022/01/09 12:26:03;;;;;;;6.50;1.40;;;7.10;99.90;;;;;;5085119;28;20530;-48
2022/01/09 12:28:44;;;;;;;3.07;1.07;;;7.40;99.90;;;;;;5081944;28;20486;-48
2022/01/09 12:31:25;;;;;;;4.20;1.50;;;7.50;99.50;;;;;;5076302;28;20472;-48
2022/01/09 12:33:53;;;;;;;2.40;2.20;;;7.40;98.90;;;;;;5074306;28;20821;-49
2022/01/09 12:36:31;;;;;;;4.10;1.13;;;7.30;99.00;;;;;;5096134;27;20472;-48
2022/01/09 12:39:03;;;;;;;4.33;1.10;;;7.10;99.50;;;;;;5068078;28;20801;-48
2022/01/09 12:41:33;;;;;;;6.53;1.37;;;7.00;99.80;;;;;;5098264;27;20534;-48
2022/01/09 12:44:04;;;;;;;7.10;1.97;;;7.00;99.60;;;;;;5082833;28;20518;-47
2022/01/09 12:46:34;;;;;;;5.03;2.10;;;7.10;99.90;;;;;;5081602;28;20500;-48
2022/01/09 12:49:02;;;;;;;8.27;2.00;;;7.20;99.90;;;;;;5080455;28;20511;-47
2022/01/09 12:51:30;;;;;;;6.10;2.30;;;7.30;99.80;;;;;;5080538;28;20482;-48
2022/01/09 12:54:00;;;;;;;6.20;2.20;;;7.50;99.90;;;;;;5078499;28;20489;-48
2022/01/09 12:56:28;;;;;;;3.87;2.90;;;7.70;99.90;;;;;;5077206;28;20481;-49
2022/01/09 12:58:57;;;;;;;3.30;1.80;;;7.90;99.70;;;;;;5079369;28;20486;-49
2022/01/09 13:01:28;;;;;;;6.40;1.90;;;8.20;99.90;;;;;;5075476;28;20490;-48
2022/01/09 13:03:56;;;;;;;4.40;1.50;;;8.30;99.20;;;;;;5081018;28;20485;-48